Time;durP1;ratioP1;P1;durP2;ratioP2;P2;SDS_P1;SDS_P2;PMS_P1;PMS_P2;Temp;Humidity;BMP_temperature;BMP_pressure;BME280_temperature;BME280_humidity;BME280_pressure;Samples;Min_cycle;Max_cycle;Signal;HPM_P1;HPM_P2
2024/01/14 00:00:10;;;;;;;9.10;5.20;;;;;;;2.27;81.42;99323.38;129579;1257;114768;-64
2024/01/14 00:03:12;;;;;;;8.60;5.40;;;;;;;2.26;81.72;99323.56;129913;1257;114740;-63
2024/01/14 00:06:14;;;;;;;8.60;5.90;;;;;;;2.25;81.83;99314.08;130190;1259;114747;-64
2024/01/14 00:09:17;;;;;;;7.70;5.70;;;;;;;2.25;82.11;99317.10;129502;1278;114814;-63
2024/01/14 00:12:19;;;;;;;9.30;6.40;;;;;;;2.23;82.09;99305.88;130091;1259;115249;-63
2024/01/14 00:15:21;;;;;;;8.00;6.40;;;;;;;2.22;82.29;99303.42;129804;1257;114766;-63
2024/01/14 00:18:24;;;;;;;10.00;5.60;;;;;;;2.21;82.36;99304.88;129973;1259;114705;-63
2024/01/14 00:21:26;;;;;;;8.70;6.20;;;;;;;2.21;82.22;99305.77;129602;1278;128558;-62
2024/01/14 00:24:28;;;;;;;8.70;5.50;;;;;;;2.21;82.41;99308.05;129830;1259;115212;-64
2024/01/14 00:27:30;;;;;;;8.10;6.10;;;;;;;2.21;82.54;99312.64;129808;1257;114722;-63
2024/01/14 00:30:32;;;;;;;9.90;5.20;;;;;;;2.21;82.35;99308.75;129877;1257;115384;-65
2024/01/14 00:33:34;;;;;;;9.00;6.10;;;;;;;2.21;82.47;99305.59;129929;1257;116334;-65
2024/01/14 00:36:39;;;;;;;8.30;5.90;;;;;;;2.21;82.50;99305.59;130017;1259;114734;-63
2024/01/14 00:39:41;;;;;;;9.80;6.50;;;;;;;2.20;82.55;99298.19;129764;1264;114735;-64
2024/01/14 00:42:43;;;;;;;8.20;5.70;;;;;;;2.22;82.46;99287.23;129903;1261;114769;-65
2024/01/14 00:45:46;;;;;;;8.50;5.20;;;;;;;2.24;82.64;99279.59;129930;1257;114815;-63
2024/01/14 00:48:48;;;;;;;9.40;5.30;;;;;;;2.23;82.48;99271.89;130123;1258;114753;-64
2024/01/14 00:51:50;;;;;;;8.80;6.50;;;;;;;2.24;82.50;99266.89;129656;1260;114786;-64
2024/01/14 00:54:52;;;;;;;7.60;4.90;;;;;;;2.25;82.56;99264.23;129997;1259;114805;-64
2024/01/14 00:57:54;;;;;;;9.60;5.70;;;;;;;2.26;82.47;99261.55;129519;1257;114793;-63
2024/01/14 01:00:57;;;;;;;8.50;4.90;;;;;;;2.28;82.40;99259.21;130154;1254;115269;-63
2024/01/14 01:03:58;;;;;;;8.10;5.20;;;;;;;2.28;82.49;99252.70;130238;1254;115634;-63
2024/01/14 01:07:00;;;;;;;6.90;5.50;;;;;;;2.28;82.64;99247.39;129490;1254;128335;-64
2024/01/14 01:10:03;;;;;;;7.80;5.00;;;;;;;2.30;82.52;99242.41;130181;1256;114712;-64
2024/01/14 01:13:05;;;;;;;6.90;4.60;;;;;;;2.30;82.40;99235.36;130008;1277;115214;-64
2024/01/14 01:16:07;;;;;;;9.70;5.80;;;;;;;2.30;82.68;99238.04;130146;1277;114728;-64
2024/01/14 01:19:09;;;;;;;6.50;4.30;;;;;;;2.31;82.77;99234.46;130152;1259;114793;-64
2024/01/14 01:22:11;;;;;;;6.90;4.50;;;;;;;2.28;82.79;99226.79;130226;1259;114627;-64
2024/01/14 01:25:12;;;;;;;6.50;4.80;;;;;;;2.25;82.70;99218.26;129879;1277;114776;-63
2024/01/14 01:28:15;;;;;;;7.50;4.60;;;;;;;2.25;82.64;99218.95;130146;1259;115087;-63
2024/01/14 01:31:16;;;;;;;8.70;4.50;;;;;;;2.26;82.67;99210.65;129924;1259;115077;-64
2024/01/14 01:34:19;;;;;;;6.50;4.80;;;;;;;2.25;82.76;99198.86;129951;1277;115232;-63
2024/01/14 01:37:21;;;;;;;6.40;4.30;;;;;;;2.25;82.60;99191.30;129864;1271;115193;-63
2024/01/14 01:40:23;;;;;;;8.00;5.20;;;;;;;2.25;82.72;99177.37;130006;1256;116474;-64
2024/01/14 01:43:25;;;;;;;6.10;4.30;;;;;;;2.26;82.80;99169.94;130294;1259;114787;-64
2024/01/14 01:46:27;;;;;;;7.70;4.80;;;;;;;2.28;82.68;99163.73;130140;1256;115277;-64
2024/01/14 01:49:29;;;;;;;5.50;3.30;;;;;;;2.28;82.66;99158.27;130228;1259;114814;-65
2024/01/14 01:52:31;;;;;;;6.60;4.30;;;;;;;2.26;82.74;99158.14;129823;1257;127850;-64
2024/01/14 01:55:34;;;;;;;5.90;3.80;;;;;;;2.24;82.71;99155.38;129886;1259;115068;-64
2024/01/14 01:58:36;;;;;;;4.80;3.20;;;;;;;2.22;82.74;99148.08;129992;1277;114865;-64
2024/01/14 02:01:39;;;;;;;6.80;4.90;;;;;;;2.20;82.79;99143.04;130162;1277;114716;-64
2024/01/14 02:04:41;;;;;;;7.80;4.20;;;;;;;2.19;83.04;99139.54;130205;1273;114734;-64
2024/01/14 02:07:44;;;;;;;6.60;4.50;;;;;;;2.19;82.89;99138.83;129958;1261;114766;-64
2024/01/14 02:10:46;;;;;;;7.90;4.40;;;;;;;2.19;83.04;99140.58;130131;1259;114781;-64
2024/01/14 02:13:48;;;;;;;7.60;5.00;;;;;;;2.19;83.00;99135.84;130284;1254;114863;-64
2024/01/14 02:16:52;;;;;;;6.40;4.90;;;;;;;2.19;83.34;99131.27;129640;1277;114783;-64
2024/01/14 02:19:54;;;;;;;6.40;3.90;;;;;;;2.18;83.13;99129.89;129944;1258;114812;-64
2024/01/14 02:22:56;;;;;;;7.40;5.00;;;;;;;2.18;83.21;99122.33;129979;1277;114731;-63
2024/01/14 02:25:58;;;;;;;6.70;4.80;;;;;;;2.18;83.35;99119.33;130018;1274;114764;-64
2024/01/14 02:29:03;;;;;;;7.00;4.80;;;;;;;2.17;83.23;99119.70;129919;1261;114681;-64
2024/01/14 02:32:04;;;;;;;6.10;4.80;;;;;;;2.16;83.21;99120.08;129591;1277;128351;-64
2024/01/14 02:35:07;;;;;;;8.70;4.20;;;;;;;2.16;83.66;99119.21;130260;1259;114728;-64
2024/01/14 02:38:09;;;;;;;8.60;4.70;;;;;;;2.14;83.62;99122.43;130230;1257;114710;-64
2024/01/14 02:41:13;;;;;;;7.10;4.20;;;;;;;2.15;83.76;99122.09;129938;1257;114721;-64
2024/01/14 02:44:15;;;;;;;7.60;4.80;;;;;;;2.12;83.72;99116.35;130162;1259;114796;-64
2024/01/14 02:47:17;;;;;;;8.80;4.40;;;;;;;2.11;83.86;99111.46;129919;1259;115322;-64
2024/01/14 02:50:19;;;;;;;8.80;4.30;;;;;;;2.10;83.94;99097.73;129711;1277;115386;-64
2024/01/14 02:53:21;;;;;;;8.90;4.40;;;;;;;2.11;83.82;99098.23;130105;1277;114722;-64
2024/01/14 02:56:23;;;;;;;7.80;3.90;;;;;;;2.11;83.82;99097.70;129957;1277;115248;-64
2024/01/14 02:59:25;;;;;;;6.30;3.70;;;;;;;2.11;83.92;99090.51;129615;1256;115282;-64
2024/01/14 03:02:27;;;;;;;8.80;4.70;;;;;;;2.10;83.91;99087.36;130209;1258;115403;-64
2024/01/14 03:05:29;;;;;;;8.00;4.20;;;;;;;2.11;84.05;99089.25;129981;1259;114735;-64
2024/01/14 03:08:31;;;;;;;4.50;3.10;;;;;;;2.11;84.13;99098.25;129604;1258;114884;-64
2024/01/14 03:11:34;;;;;;;10.60;4.20;;;;;;;2.10;84.37;99083.65;130302;1254;114704;-64
2024/01/14 03:14:36;;;;;;;7.20;4.20;;;;;;;2.10;84.07;99086.84;130264;1259;114791;-64
2024/01/14 03:17:37;;;;;;;7.70;3.80;;;;;;;2.07;84.37;99089.38;130147;1260;128855;-64
2024/01/14 03:20:39;;;;;;;6.70;3.60;;;;;;;2.07;84.36;99079.52;129639;1261;114826;-64
2024/01/14 03:23:41;;;;;;;5.40;3.50;;;;;;;2.07;84.55;99094.16;130203;1259;114885;-64
2024/01/14 03:26:43;;;;;;;7.50;3.80;;;;;;;2.06;84.59;99091.39;129880;1259;115367;-64
2024/01/14 03:29:45;;;;;;;8.00;4.30;;;;;;;2.05;84.63;99085.42;130151;1259;114871;-64
2024/01/14 03:32:47;;;;;;;5.30;3.30;;;;;;;2.05;84.46;99089.83;130222;1259;114721;-64
2024/01/14 03:35:48;;;;;;;7.40;4.50;;;;;;;2.05;84.70;99087.02;129533;1277;115145;-64
2024/01/14 03:38:50;;;;;;;6.00;3.20;;;;;;;2.05;84.72;99082.61;130165;1259;114648;-64
2024/01/14 03:41:52;;;;;;;7.50;5.10;;;;;;;2.05;84.84;99080.13;130278;1259;114740;-64
2024/01/14 03:44:54;;;;;;;7.40;3.50;;;;;;;2.05;84.75;99077.14;130159;1277;115335;-64
2024/01/14 03:47:56;;;;;;;7.30;4.80;;;;;;;2.06;84.92;99072.17;130152;1259;114784;-64
2024/01/14 03:50:58;;;;;;;5.40;2.90;;;;;;;2.06;84.89;99071.30;129999;1260;114724;-64
2024/01/14 03:54:00;;;;;;;6.40;4.20;;;;;;;2.06;84.85;99072.34;130242;1259;114804;-63
2024/01/14 03:57:02;;;;;;;5.20;3.50;;;;;;;2.06;85.11;99075.17;130184;1254;114674;-64
2024/01/14 04:00:04;;;;;;;5.70;3.60;;;;;;;2.06;85.07;99071.48;130198;1259;115349;-64
2024/01/14 04:03:06;;;;;;;6.70;3.80;;;;;;;2.06;84.89;99071.64;130137;1261;129210;-64
2024/01/14 04:06:08;;;;;;;4.70;2.90;;;;;;;2.07;84.84;99075.11;130111;1254;115330;-64
2024/01/14 04:09:10;;;;;;;5.70;3.10;;;;;;;2.09;84.90;99078.20;130219;1259;114731;-64
2024/01/14 04:12:12;;;;;;;4.50;2.90;;;;;;;2.10;85.13;99077.50;129637;1264;114732;-65
2024/01/14 04:15:14;;;;;;;5.10;2.80;;;;;;;2.10;84.94;99074.13;130181;1258;114710;-65
2024/01/14 04:18:16;;;;;;;4.70;2.90;;;;;;;2.10;85.00;99079.08;130227;1259;114788;-64
2024/01/14 04:21:22;;;;;;;6.80;3.90;;;;;;;2.09;85.18;99074.00;129620;1277;114726;-64
2024/01/14 04:24:24;;;;;;;5.40;3.50;;;;;;;2.10;85.06;99069.39;130248;1259;128689;-64
2024/01/14 04:27:26;;;;;;;5.90;4.20;;;;;;;2.11;85.34;99067.23;130140;1260;114840;-64
2024/01/14 04:30:28;;;;;;;6.90;3.30;;;;;;;2.13;85.19;99061.02;130246;1259;115308;-64
2024/01/14 04:33:29;;;;;;;5.30;3.90;;;;;;;2.14;85.33;99062.91;130209;1260;115348;-64
2024/01/14 04:36:31;;;;;;;4.60;3.10;;;;;;;2.16;85.31;99056.70;130162;1258;114838;-64
2024/01/14 04:39:33;;;;;;;5.00;3.20;;;;;;;2.16;85.30;99044.38;130177;1268;114642;-64
2024/01/14 04:42:35;;;;;;;5.30;3.30;;;;;;;2.15;85.44;99041.05;130206;1259;114741;-64
2024/01/14 04:45:37;;;;;;;5.00;3.20;;;;;;;2.16;85.50;99038.56;129891;1259;114714;-64
2024/01/14 04:48:39;;;;;;;7.40;4.30;;;;;;;2.16;85.49;99038.19;130306;1254;114802;-64
2024/01/14 04:51:41;;;;;;;4.80;3.20;;;;;;;2.16;85.44;99034.87;129804;1265;115004;-64
2024/01/14 04:54:43;;;;;;;6.80;3.60;;;;;;;2.15;85.54;99042.29;130174;1259;114706;-64
2024/01/14 04:57:45;;;;;;;4.20;3.50;;;;;;;2.15;85.61;99042.84;129938;1277;114714;-64
2024/01/14 05:00:47;;;;;;;4.80;3.00;;;;;;;2.15;85.44;99032.23;129591;1256;116370;-64
2024/01/14 05:03:49;;;;;;;5.30;3.60;;;;;;;2.15;85.66;99033.11;129881;1257;114789;-64
2024/01/14 05:06:51;;;;;;;6.40;3.70;;;;;;;2.15;85.56;99034.17;130288;1259;115772;-64
2024/01/14 05:09:53;;;;;;;6.00;4.00;;;;;;;2.15;85.49;99034.17;129818;1275;127842;-64
2024/01/14 05:12:56;;;;;;;4.90;3.00;;;;;;;2.16;85.38;99032.92;129833;1259;114792;-64
2024/01/14 05:15:58;;;;;;;4.80;2.90;;;;;;;2.16;85.70;99030.98;129958;1254;114789;-64
2024/01/14 05:19:00;;;;;;;5.30;3.20;;;;;;;2.17;85.50;99033.23;130338;1257;114792;-64
2024/01/14 05:22:02;;;;;;;4.10;2.70;;;;;;;2.16;85.68;99032.73;129842;1256;115090;-64
2024/01/14 05:25:04;;;;;;;4.80;3.60;;;;;;;2.15;85.65;99032.60;130161;1254;115425;-64
2024/01/14 05:28:06;;;;;;;5.10;2.90;;;;;;;2.14;85.59;99031.94;129955;1259;114712;-64
2024/01/14 05:31:08;;;;;;;4.50;3.40;;;;;;;2.12;85.74;99030.94;129883;1259;115123;-64
2024/01/14 05:34:10;;;;;;;4.70;3.80;;;;;;;2.12;85.67;99025.48;130125;1256;114721;-65
2024/01/14 05:37:12;;;;;;;4.70;2.40;;;;;;;2.10;85.78;99022.88;130195;1254;114721;-64
2024/01/14 05:40:15;;;;;;;4.60;3.10;;;;;;;2.09;85.86;99018.56;130236;1255;115401;-64
2024/01/14 05:43:17;;;;;;;5.30;3.70;;;;;;;2.08;85.66;99023.15;129977;1262;114720;-64
2024/01/14 05:46:19;;;;;;;4.70;2.90;;;;;;;2.08;85.87;99020.33;129905;1277;115386;-64
2024/01/14 05:49:21;;;;;;;4.40;2.70;;;;;;;2.08;85.86;99015.91;129971;1256;114728;-64
2024/01/14 05:52:24;;;;;;;4.70;3.30;;;;;;;2.08;85.84;99019.98;129980;1277;128895;-64
2024/01/14 05:55:26;;;;;;;4.10;3.20;;;;;;;2.07;85.88;99015.60;130032;1277;114701;-65
2024/01/14 05:58:29;;;;;;;5.30;3.50;;;;;;;2.08;86.10;99013.45;130056;1262;114786;-64
2024/01/14 06:01:31;;;;;;;4.40;3.20;;;;;;;2.07;86.06;99014.88;130001;1259;114787;-64
2024/01/14 06:04:33;;;;;;;4.80;4.00;;;;;;;2.07;85.99;99019.12;130112;1259;115157;-63
2024/01/14 06:07:35;;;;;;;4.80;3.20;;;;;;;2.06;86.01;99023.39;130007;1258;115206;-66
2024/01/14 06:10:38;;;;;;;5.50;3.50;;;;;;;2.06;86.30;99017.40;129666;1260;114933;-65
2024/01/14 06:13:41;;;;;;;5.00;3.40;;;;;;;2.06;86.03;99018.12;129984;1273;114814;-65
2024/01/14 06:16:44;;;;;;;6.30;3.90;;;;;;;2.06;86.15;99019.53;129709;1262;114860;-65
2024/01/14 06:19:46;;;;;;;4.00;3.20;;;;;;;2.05;85.96;99018.86;130320;1254;115393;-64
2024/01/14 06:22:47;;;;;;;3.50;2.50;;;;;;;2.03;86.01;99019.09;129982;1256;114717;-63
2024/01/14 06:25:50;;;;;;;4.50;3.20;;;;;;;2.03;86.04;99018.05;129604;1259;116262;-64
2024/01/14 06:28:52;;;;;;;4.30;3.10;;;;;;;2.03;86.12;99014.52;129662;1260;115249;-64
2024/01/14 06:31:54;;;;;;;3.40;2.60;;;;;;;2.05;86.17;99009.52;129783;1256;114801;-64
2024/01/14 06:34:56;;;;;;;4.70;3.00;;;;;;;2.04;86.09;99008.85;129527;1259;128499;-64
2024/01/14 06:37:58;;;;;;;5.50;2.80;;;;;;;2.04;86.07;99003.75;129947;1257;114764;-64
2024/01/14 06:41:01;;;;;;;4.60;3.80;;;;;;;2.03;85.93;98998.67;130031;1258;115122;-63
2024/01/14 06:44:04;;;;;;;5.00;3.80;;;;;;;2.00;85.91;98998.41;129805;1262;114795;-63
2024/01/14 06:47:06;;;;;;;4.80;3.20;;;;;;;1.98;85.94;99001.30;129964;1256;114758;-63
2024/01/14 06:50:10;;;;;;;4.90;3.00;;;;;;;1.94;85.72;99004.43;129666;1256;114816;-63
2024/01/14 06:53:12;;;;;;;4.50;2.80;;;;;;;1.90;85.61;99003.52;130011;1257;114784;-63
2024/01/14 06:56:18;;;;;;;5.20;3.20;;;;;;;1.87;85.68;99004.70;130031;1254;114794;-64
2024/01/14 06:59:23;;;;;;;3.90;2.70;;;;;;;1.84;85.98;99002.48;129910;1256;114720;-63
2024/01/14 07:02:26;;;;;;;5.90;3.40;;;;;;;1.84;85.98;99007.25;129668;1257;114729;-64
2024/01/14 07:05:28;;;;;;;3.30;2.30;;;;;;;1.85;86.01;99010.40;129975;1256;115145;-63
2024/01/14 07:08:30;;;;;;;5.70;3.30;;;;;;;1.86;86.01;99012.49;130005;1259;114718;-64
2024/01/14 07:11:32;;;;;;;5.40;3.70;;;;;;;1.87;86.01;99021.06;129858;1269;128913;-63
2024/01/14 07:14:35;;;;;;;3.90;2.50;;;;;;;1.90;86.13;99028.02;129998;1259;114722;-63
2024/01/14 07:17:37;;;;;;;3.60;2.50;;;;;;;1.91;86.01;99033.76;129661;1277;114784;-63
2024/01/14 07:20:41;;;;;;;4.30;2.70;;;;;;;1.94;85.96;99035.25;129899;1257;114809;-62
2024/01/14 07:23:43;;;;;;;5.90;3.50;;;;;;;1.95;85.86;99034.50;130016;1259;115236;-63
2024/01/14 07:26:45;;;;;;;4.40;2.80;;;;;;;1.97;86.03;99043.59;130015;1259;114786;-63
2024/01/14 07:29:47;;;;;;;5.20;3.50;;;;;;;2.01;85.83;99040.83;129873;1259;114757;-63
2024/01/14 07:32:49;;;;;;;5.40;3.50;;;;;;;2.03;86.05;99041.30;129953;1257;114700;-63
2024/01/14 07:35:51;;;;;;;4.20;2.30;;;;;;;2.06;86.01;99044.53;129719;1260;114863;-63
2024/01/14 07:38:54;;;;;;;4.90;3.40;;;;;;;2.09;85.92;99044.95;129836;1259;114758;-63
2024/01/14 07:41:57;;;;;;;5.40;4.80;;;;;;;2.11;85.98;99047.52;129763;1259;114738;-64
2024/01/14 07:44:59;;;;;;;4.00;2.90;;;;;;;2.15;85.96;99048.96;129695;1257;114731;-63
2024/01/14 07:48:02;;;;;;;4.10;2.60;;;;;;;2.19;85.74;99051.98;129615;1257;114898;-63
2024/01/14 07:51:04;;;;;;;8.50;4.80;;;;;;;2.20;85.63;99054.80;129971;1259;129070;-63
2024/01/14 07:54:07;;;;;;;8.10;4.00;;;;;;;2.22;85.62;99057.50;129868;1272;115392;-63
2024/01/14 07:57:09;;;;;;;6.30;4.00;;;;;;;2.26;85.60;99057.19;129969;1271;116355;-64
2024/01/14 08:00:12;;;;;;;10.20;5.40;;;;;;;2.31;85.50;99058.07;129958;1262;114777;-63
2024/01/14 08:03:15;;;;;;;14.40;6.60;;;;;;;2.36;85.54;99062.31;129901;1256;114711;-63
2024/01/14 08:06:22;;;;;;;16.20;8.80;;;;;;;2.42;85.57;99066.48;129770;1256;114810;-63
2024/01/14 08:09:24;;;;;;;8.30;5.40;;;;;;;2.48;85.66;99065.06;129970;1255;128865;-64
2024/01/14 08:12:26;;;;;;;5.70;3.20;;;;;;;2.52;85.49;99065.09;129759;1257;114988;-63
2024/01/14 08:15:28;;;;;;;7.20;4.70;;;;;;;2.55;85.46;99066.75;130070;1257;115297;-64
2024/01/14 08:18:30;;;;;;;4.40;3.00;;;;;;;2.59;85.34;99068.55;129731;1278;114783;-64
2024/01/14 08:21:32;;;;;;;5.40;3.70;;;;;;;2.61;85.30;99066.34;129713;1259;114799;-64
2024/01/14 08:24:34;;;;;;;6.40;3.70;;;;;;;2.64;85.20;99068.04;129824;1259;114690;-64
2024/01/14 08:27:38;;;;;;;5.00;3.10;;;;;;;2.68;85.26;99066.45;129673;1263;114781;-64
2024/01/14 08:30:40;;;;;;;6.80;3.40;;;;;;;2.72;85.05;99065.95;129817;1278;129008;-64
2024/01/14 08:33:43;;;;;;;5.20;3.80;;;;;;;2.78;85.25;99060.07;129869;1278;114715;-64
2024/01/14 08:36:45;;;;;;;5.90;3.70;;;;;;;2.85;85.03;99061.91;129943;1259;114815;-64
2024/01/14 08:39:48;;;;;;;5.80;3.70;;;;;;;2.89;84.90;99067.77;130302;1259;114725;-64
2024/01/14 08:42:50;;;;;;;8.30;5.70;;;;;;;2.92;84.63;99072.27;129792;1257;114879;-64
2024/01/14 08:45:52;;;;;;;6.10;4.30;;;;;;;2.94;84.81;99076.75;130020;1259;115382;-64
2024/01/14 08:48:54;;;;;;;14.10;7.40;;;;;;;2.93;84.48;99077.67;130452;1258;114714;-64
2024/01/14 08:51:56;;;;;;;11.80;6.40;;;;;;;2.94;84.57;99083.45;129990;1256;128915;-64
2024/01/14 08:54:58;;;;;;;8.00;4.00;;;;;;;2.99;84.48;99086.45;130158;1255;114736;-64
2024/01/14 08:58:00;;;;;;;6.10;4.00;;;;;;;3.02;84.35;99088.27;130232;1259;114863;-64
2024/01/14 09:01:03;;;;;;;5.00;2.90;;;;;;;3.04;84.25;99089.62;130315;1254;114709;-64
2024/01/14 09:04:06;;;;;;;11.90;4.90;;;;;;;3.05;84.08;99086.95;130186;1270;114776;-64
2024/01/14 09:07:08;;;;;;;7.60;3.10;;;;;;;3.04;83.86;99091.20;130185;1270;114818;-64
2024/01/14 09:10:10;;;;;;;9.50;5.20;;;;;;;3.04;83.93;99098.41;130178;1259;115001;-64
2024/01/14 09:13:12;;;;;;;9.10;5.10;;;;;;;3.09;84.10;99095.76;130222;1259;114673;-64
2024/01/14 09:16:16;;;;;;;10.20;4.70;;;;;;;3.15;84.11;99098.02;129843;1259;115364;-64
2024/01/14 09:19:18;;;;;;;15.10;8.00;;;;;;;3.18;84.09;99099.31;129978;1259;114690;-64
2024/01/14 09:22:20;;;;;;;13.80;7.70;;;;;;;3.17;83.84;99096.66;130241;1259;114737;-64
2024/01/14 09:25:22;;;;;;;8.40;5.00;;;;;;;3.16;83.68;99101.67;130214;1259;114751;-63
2024/01/14 09:28:24;;;;;;;6.60;3.70;;;;;;;3.16;83.67;99097.24;129922;1258;114707;-63
2024/01/14 09:31:27;;;;;;;7.80;4.80;;;;;;;3.24;83.97;99106.66;129759;1271;115090;-63
2024/01/14 09:34:29;;;;;;;5.90;3.40;;;;;;;3.37;83.92;99101.57;130009;1268;115211;-63
2024/01/14 09:37:31;;;;;;;6.10;3.30;;;;;;;3.53;84.04;99102.53;129800;1272;115207;-63
2024/01/14 09:40:35;;;;;;;8.50;4.70;;;;;;;3.64;83.73;99096.60;129526;1261;114818;-63
2024/01/14 09:43:37;;;;;;;6.80;4.60;;;;;;;3.75;83.59;99091.23;129612;1264;114937;-63
2024/01/14 09:46:40;;;;;;;6.20;3.50;;;;;;;3.84;83.41;99089.27;129670;1261;114834;-63
2024/01/14 09:49:42;;;;;;;5.30;4.60;;;;;;;3.88;82.91;99088.41;129841;1259;114815;-63
2024/01/14 09:52:44;;;;;;;7.60;3.30;;;;;;;3.92;82.92;99086.83;129752;1259;114815;-63
2024/01/14 09:55:48;;;;;;;6.30;3.90;;;;;;;3.96;82.84;99081.02;129633;1256;116204;-63
2024/01/14 09:58:53;;;;;;;5.20;3.40;;;;;;;4.00;82.82;99078.38;129534;1262;114797;-63
2024/01/14 10:01:55;;;;;;;6.40;3.90;;;;;;;4.03;82.44;99081.98;129906;1256;114715;-63
2024/01/14 10:04:58;;;;;;;7.00;4.00;;;;;;;4.05;82.58;99081.69;129656;1256;114839;-63
2024/01/14 10:08:01;;;;;;;7.70;4.70;;;;;;;4.10;82.60;99081.81;129822;1257;115251;-63
2024/01/14 10:11:04;;;;;;;5.80;3.60;;;;;;;4.17;82.69;99076.75;129710;1262;115148;-62
2024/01/14 10:14:06;;;;;;;6.50;3.90;;;;;;;4.26;82.26;99076.36;129744;1274;114721;-63
2024/01/14 10:17:09;;;;;;;5.70;3.50;;;;;;;4.32;82.23;99071.67;129750;1279;114741;-64
2024/01/14 10:20:14;;;;;;;5.50;3.80;;;;;;;4.34;81.90;99067.70;129510;1262;114935;-64
2024/01/14 10:23:16;;;;;;;6.90;4.60;;;;;;;4.38;81.87;99063.81;129785;1260;114760;-62
2024/01/14 10:26:22;;;;;;;4.80;3.90;;;;;;;4.47;81.87;99058.13;130064;1259;115413;-64
2024/01/14 10:29:24;;;;;;;6.10;3.80;;;;;;;4.53;81.46;99054.67;129701;1277;128809;-63
2024/01/14 10:32:27;;;;;;;6.70;4.50;;;;;;;4.59;81.51;99054.24;129509;1270;115100;-64
2024/01/14 10:35:29;;;;;;;5.90;3.40;;;;;;;4.68;81.46;99043.05;129895;1269;114779;-64
2024/01/14 10:38:31;;;;;;;6.50;4.20;;;;;;;4.74;81.13;99042.23;129785;1256;114725;-63
2024/01/14 10:41:33;;;;;;;5.20;3.60;;;;;;;4.81;81.04;99035.73;129781;1257;114719;-63
2024/01/14 10:44:36;;;;;;;7.40;5.50;;;;;;;4.86;80.67;99036.03;129864;1261;114858;-63
2024/01/14 10:47:42;;;;;;;7.70;5.70;;;;;;;4.88;80.35;99026.40;129795;1257;114732;-64
2024/01/14 10:50:49;;;;;;;7.00;4.40;;;;;;;4.86;80.08;99027.52;129480;1265;127928;-64
2024/01/14 10:54:22;;;;;;;5.10;3.20;;;;;;;4.88;80.04;99017.70;129858;1262;114795;-64
2024/01/14 10:57:35;;;;;;;12.00;6.10;;;;;;;4.87;79.54;99020.08;129812;1265;114854;-63
2024/01/14 11:00:39;;;;;;;7.90;5.00;;;;;;;4.83;79.56;99014.59;129855;1278;114747;-63
2024/01/14 11:03:43;;;;;;;5.50;3.00;;;;;;;4.85;79.63;99010.79;129731;1262;114849;-63
2024/01/14 11:06:47;;;;;;;5.40;3.10;;;;;;;4.96;79.98;99000.02;129370;1278;128633;-63
2024/01/14 11:09:50;;;;;;;6.80;3.70;;;;;;;5.10;79.81;99002.15;129688;1275;114797;-64
2024/01/14 11:13:08;;;;;;;7.20;4.60;;;;;;;5.20;79.60;99001.20;129429;1261;141463;-64
2024/01/14 11:16:42;;;;;;;4.50;2.50;;;;;;;5.23;79.19;99007.95;129415;1263;115155;-63
2024/01/14 11:19:45;;;;;;;5.40;3.60;;;;;;;5.23;79.10;99003.84;129661;1257;115121;-64
2024/01/14 11:22:50;;;;;;;5.30;2.60;;;;;;;5.23;78.86;99007.93;129705;1262;129140;-64
2024/01/14 11:25:54;;;;;;;6.50;3.60;;;;;;;5.16;78.46;99004.73;130071;1275;114740;-63
2024/01/14 11:28:59;;;;;;;6.30;2.90;;;;;;;5.07;78.48;99001.95;129646;1277;114812;-64
2024/01/14 11:32:04;;;;;;;5.50;2.80;;;;;;;4.95;78.28;99002.18;129617;1264;114684;-63
2024/01/14 11:35:06;;;;;;;4.20;2.60;;;;;;;4.83;78.02;99004.68;129337;1261;114888;-64
2024/01/14 11:38:32;;;;;;;5.60;3.30;;;;;;;4.72;78.22;98997.80;129968;1256;114789;-65
2024/01/14 11:41:35;;;;;;;4.90;3.60;;;;;;;4.66;78.30;98991.17;129751;1260;114874;-64
2024/01/14 11:44:37;;;;;;;7.40;3.40;;;;;;;4.60;78.48;98993.02;130213;1260;115423;-64
2024/01/14 11:47:46;;;;;;;5.70;3.00;;;;;;;4.53;78.56;98996.16;129929;1277;114770;-64
2024/01/14 11:50:51;;;;;;;4.60;2.80;;;;;;;4.47;78.90;98990.81;130004;1265;114808;-63
2024/01/14 11:53:54;;;;;;;;;;;;;;;4.45;79.23;98991.04;129689;1277;128443;-64
2024/01/14 11:56:56;;;;;;;4.90;3.00;;;;;;;4.46;79.75;98992.96;129984;1260;114824;-63
2024/01/14 11:59:58;;;;;;;5.50;3.80;;;;;;;4.49;79.65;98995.65;129981;1260;114737;-64
2024/01/14 12:03:07;;;;;;;4.40;3.20;;;;;;;4.46;79.46;98994.73;130112;1260;115448;-63
2024/01/14 12:06:09;;;;;;;5.80;3.90;;;;;;;4.43;79.61;98993.10;129999;1267;115330;-64
2024/01/14 12:09:14;;;;;;;4.60;2.50;;;;;;;4.45;79.64;98990.49;129947;1259;114766;-64
2024/01/14 12:12:17;;;;;;;5.60;3.70;;;;;;;4.55;79.87;98990.93;129621;1277;128269;-64
2024/01/14 12:15:19;;;;;;;5.20;3.10;;;;;;;4.66;79.90;98981.96;129887;1277;114792;-63
2024/01/14 12:18:21;;;;;;;4.70;2.70;;;;;;;4.77;80.07;98981.42;129858;1260;115373;-64
2024/01/14 12:21:26;;;;;;;4.30;3.50;;;;;;;4.84;79.98;98975.25;129878;1259;114789;-63
2024/01/14 12:24:29;;;;;;;3.00;2.10;;;;;;;4.89;79.58;98969.89;129584;1264;114950;-64
2024/01/14 12:27:31;;;;;;;4.60;2.90;;;;;;;4.86;78.87;98962.27;129766;1264;114823;-64
2024/01/14 12:30:36;;;;;;;4.20;2.60;;;;;;;4.77;78.68;98958.81;129813;1257;114718;-65
2024/01/14 12:33:44;;;;;;;4.40;3.30;;;;;;;4.71;78.58;98957.86;130287;1269;114735;-64
2024/01/14 12:36:46;;;;;;;6.40;3.10;;;;;;;4.69;78.33;98949.06;130096;1260;114808;-64
2024/01/14 12:39:48;;;;;;;5.40;3.40;;;;;;;4.69;78.20;98952.09;130032;1260;114979;-63
2024/01/14 12:42:50;;;;;;;4.10;2.40;;;;;;;4.69;78.07;98952.09;129931;1262;114809;-64
2024/01/14 12:45:52;;;;;;;4.60;2.50;;;;;;;4.68;77.78;98947.88;130088;1259;114742;-66
2024/01/14 12:48:53;;;;;;;4.30;2.80;;;;;;;4.63;77.33;98944.95;130118;1269;114796;-66
2024/01/14 12:51:59;;;;;;;5.20;2.60;;;;;;;4.54;77.46;98943.24;130223;1259;114758;-64
2024/01/14 12:55:01;;;;;;;4.60;2.70;;;;;;;4.50;77.53;98943.41;129798;1266;114783;-65
2024/01/14 12:58:04;;;;;;;3.80;2.20;;;;;;;4.47;77.62;98947.62;129739;1268;114746;-65
2024/01/14 13:01:08;;;;;;;4.20;3.00;;;;;;;4.44;77.37;98955.59;130078;1259;114727;-65
2024/01/14 13:04:10;;;;;;;5.20;3.20;;;;;;;4.43;77.66;98958.98;129606;1264;114746;-64
2024/01/14 13:07:15;;;;;;;4.10;2.90;;;;;;;4.48;77.67;98960.33;129513;1276;129536;-67
2024/01/14 13:10:18;;;;;;;4.10;1.80;;;;;;;4.48;77.26;98963.17;129782;1259;115349;-65
2024/01/14 13:13:19;;;;;;;4.70;3.20;;;;;;;4.45;77.18;98967.52;130027;1269;115133;-65
2024/01/14 13:16:21;;;;;;;4.00;2.70;;;;;;;4.47;77.35;98958.98;130038;1259;114713;-66
2024/01/14 13:19:23;;;;;;;5.00;3.00;;;;;;;4.48;77.27;98960.52;129799;1262;115499;-65
2024/01/14 13:22:25;;;;;;;5.30;3.20;;;;;;;4.47;76.90;98961.29;130061;1257;115226;-66
2024/01/14 13:25:27;;;;;;;4.00;2.20;;;;;;;4.42;76.82;98958.66;130137;1261;115225;-65
2024/01/14 13:28:29;;;;;;;4.30;2.30;;;;;;;4.37;76.76;98954.47;130144;1259;128230;-66
2024/01/14 13:31:31;;;;;;;4.50;1.70;;;;;;;4.31;76.57;98948.38;130071;1269;114732;-65
2024/01/14 13:34:33;;;;;;;3.60;2.70;;;;;;;4.28;76.74;98945.52;130284;1262;115199;-66
2024/01/14 13:37:35;;;;;;;4.30;2.70;;;;;;;4.23;76.94;98946.27;129862;1278;114854;-64
2024/01/14 13:40:37;;;;;;;5.50;3.20;;;;;;;4.20;76.97;98946.57;129658;1261;114758;-65
2024/01/14 13:43:40;;;;;;;4.10;2.70;;;;;;;4.20;77.03;98950.48;130165;1260;114796;-65
2024/01/14 13:46:41;;;;;;;5.50;2.80;;;;;;;4.18;77.20;98951.45;130225;1278;114712;-65
2024/01/14 13:49:43;;;;;;;8.00;4.50;;;;;;;4.13;77.02;98952.00;130107;1260;115304;-65
2024/01/14 13:52:45;;;;;;;6.30;3.20;;;;;;;4.12;77.29;98949.41;130317;1261;114709;-65
2024/01/14 13:55:47;;;;;;;8.60;4.30;;;;;;;4.12;77.29;98948.70;130194;1261;115074;-64
2024/01/14 13:58:49;;;;;;;8.70;5.20;;;;;;;4.09;77.07;98942.63;129708;1278;114788;-64
2024/01/14 14:01:52;;;;;;;6.70;4.10;;;;;;;4.03;77.13;98942.53;130098;1263;115085;-66
2024/01/14 14:04:54;;;;;;;7.40;3.10;;;;;;;3.98;77.11;98939.77;130247;1269;115301;-65
2024/01/14 14:07:56;;;;;;;7.00;3.40;;;;;;;3.97;77.12;98940.55;130254;1269;114982;-65